Time;durP1;ratioP1;P1;durP2;ratioP2;P2;SDS_P1;SDS_P2;PMS_P1;PMS_P2;Temp;Humidity;BMP_temperature;BMP_pressure;BME280_temperature;BME280_humidity;BME280_pressure;Samples;Min_cycle;Max_cycle;Signal;HPM_P1;HPM_P2
2022/08/06 00:02:19;;;;;;;14.67;13.03;;;21.10;99.90;;;;;;5112123;28;20290;-73
2022/08/06 00:04:46;;;;;;;14.50;12.83;;;21.10;99.90;;;;;;5112113;28;20215;-74
2022/08/06 00:07:14;;;;;;;15.33;12.97;;;21.00;99.90;;;;;;5100717;28;20291;-73
2022/08/06 00:09:40;;;;;;;18.53;13.70;;;21.00;99.90;;;;;;5091662;28;20690;-74
2022/08/06 00:12:08;;;;;;;15.63;13.13;;;21.00;99.90;;;;;;5091631;28;20763;-74
2022/08/06 00:14:35;;;;;;;15.43;13.33;;;21.00;99.90;;;;;;5091694;28;20255;-74
2022/08/06 00:17:02;;;;;;;23.20;12.90;;;21.00;99.90;;;;;;5106280;28;20286;-73
2022/08/06 00:19:31;;;;;;;15.97;13.23;;;21.00;99.90;;;;;;5111371;28;20254;-73
2022/08/06 00:21:57;;;;;;;15.03;12.57;;;20.90;99.90;;;;;;5111863;28;20290;-74
2022/08/06 00:24:24;;;;;;;15.10;12.67;;;20.90;99.90;;;;;;5111848;28;20297;-74
2022/08/06 00:26:51;;;;;;;17.83;13.13;;;20.90;99.90;;;;;;5099503;28;20615;-73
2022/08/06 00:29:18;;;;;;;16.07;13.37;;;20.90;99.90;;;;;;5090890;28;20252;-74
2022/08/06 00:31:45;;;;;;;15.53;12.87;;;20.90;99.90;;;;;;5091814;28;20254;-73
2022/08/06 00:34:12;;;;;;;16.63;13.80;;;20.90;99.90;;;;;;5091289;28;20322;-74
2022/08/06 00:36:40;;;;;;;14.70;12.70;;;20.90;99.90;;;;;;5102411;28;20298;-74
2022/08/06 00:39:08;;;;;;;16.23;13.23;;;20.80;99.90;;;;;;5111516;28;20226;-74
2022/08/06 00:41:35;;;;;;;17.07;13.00;;;20.80;99.90;;;;;;5112264;28;20212;-75
2022/08/06 00:44:02;;;;;;;16.00;12.63;;;20.70;99.90;;;;;;5110439;28;20629;-73
2022/08/06 00:46:29;;;;;;;17.23;12.47;;;20.70;99.90;;;;;;5111968;28;20210;-74
2022/08/06 00:48:56;;;;;;;16.40;13.00;;;20.70;99.90;;;;;;5114583;28;20242;-75
2022/08/06 00:51:24;;;;;;;17.40;12.80;;;20.70;99.90;;;;;;5115132;28;20251;-73
2022/08/06 00:53:53;;;;;;;14.93;12.10;;;20.60;99.90;;;;;;5113307;28;20314;-73
2022/08/06 00:56:20;;;;;;;13.63;11.50;;;20.60;99.90;;;;;;5114979;28;20257;-72
2022/08/06 00:58:47;;;;;;;12.83;11.03;;;20.60;99.90;;;;;;5113752;28;20206;-73
2022/08/06 01:01:14;;;;;;;14.50;11.83;;;20.60;99.90;;;;;;5109659;28;20203;-73
2022/08/06 01:03:41;;;;;;;13.43;11.77;;;20.60;99.90;;;;;;5114319;28;20248;-72
2022/08/06 01:06:08;;;;;;;14.17;11.63;;;20.50;99.90;;;;;;5093915;28;20215;-74
2022/08/06 01:08:35;;;;;;;15.80;12.40;;;20.50;99.90;;;;;;5094305;28;20298;-73
2022/08/06 01:11:04;;;;;;;19.70;12.60;;;20.40;99.90;;;;;;5094006;28;20295;-72
2022/08/06 01:13:31;;;;;;;18.83;12.13;;;20.40;99.90;;;;;;5094096;28;20305;-74
2022/08/06 01:16:16;;;;;;;13.97;11.63;;;20.40;99.90;;;;;;5093164;28;20295;-73
2022/08/06 01:18:52;;;;;;;17.07;12.73;;;20.40;99.90;;;;;;5094298;28;20223;-73
2022/08/06 01:21:39;;;;;;;14.83;11.83;;;20.40;99.90;;;;;;5093904;28;20279;-74
2022/08/06 01:24:43;;;;;;;13.20;11.33;;;20.40;99.90;;;;;;5093342;28;20222;-73
2022/08/06 01:27:37;;;;;;;14.83;11.90;;;20.30;99.90;;;;;;5093860;28;20275;-73
2022/08/06 01:30:08;;;;;;;13.10;11.70;;;20.30;99.90;;;;;;5092024;28;20257;-74
2022/08/06 01:32:39;;;;;;;18.70;11.90;;;20.30;99.90;;;;;;5094328;28;20199;-73
2022/08/06 01:35:10;;;;;;;15.20;12.17;;;20.30;99.90;;;;;;5092941;28;20283;-73
2022/08/06 01:37:42;;;;;;;14.53;11.67;;;20.30;99.90;;;;;;5094115;28;20741;-73
2022/08/06 01:40:15;;;;;;;15.80;12.40;;;20.30;99.90;;;;;;5093637;28;20195;-73
2022/08/06 01:42:45;;;;;;;17.97;12.27;;;20.20;99.90;;;;;;5094015;28;20224;-73
2022/08/06 01:45:14;;;;;;;14.37;12.20;;;20.20;99.90;;;;;;5103085;28;20204;-73
2022/08/06 01:47:44;;;;;;;16.30;12.07;;;20.20;99.90;;;;;;5114012;28;20301;-73
2022/08/06 01:50:12;;;;;;;13.37;11.70;;;20.10;99.90;;;;;;5113796;28;20278;-72
2022/08/06 01:52:42;;;;;;;17.10;12.30;;;20.10;99.90;;;;;;5110424;28;20291;-73
2022/08/06 01:55:12;;;;;;;14.73;11.77;;;20.10;99.90;;;;;;5109229;28;20298;-73
2022/08/06 01:57:42;;;;;;;16.50;12.17;;;20.00;99.90;;;;;;5114488;28;20242;-74
2022/08/06 02:00:11;;;;;;;14.03;11.33;;;20.00;99.90;;;;;;5112146;28;20209;-73
2022/08/06 02:02:40;;;;;;;15.37;11.90;;;20.00;99.90;;;;;;5113784;28;20224;-74
2022/08/06 02:05:09;;;;;;;16.63;12.40;;;20.00;99.90;;;;;;5113882;28;20638;-73
2022/08/06 02:07:40;;;;;;;15.67;11.90;;;20.00;99.90;;;;;;5114076;28;20294;-73
2022/08/06 02:10:09;;;;;;;15.73;11.60;;;19.90;99.90;;;;;;5113369;28;20591;-72
2022/08/06 02:12:39;;;;;;;13.90;11.20;;;19.80;99.90;;;;;;5098388;27;20230;-74
2022/08/06 02:15:14;;;;;;;14.73;11.03;;;19.80;99.90;;;;;;5113560;28;20208;-72
2022/08/06 02:17:45;;;;;;;14.80;10.93;;;19.70;99.90;;;;;;5113742;28;20373;-73
2022/08/06 02:20:14;;;;;;;12.43;10.40;;;19.70;99.90;;;;;;5113611;28;20620;-73
2022/08/06 02:22:42;;;;;;;11.60;10.07;;;19.70;99.90;;;;;;5112572;28;20294;-73
2022/08/06 02:25:12;;;;;;;16.47;10.13;;;19.70;99.90;;;;;;5113611;28;20635;-73
2022/08/06 02:27:42;;;;;;;11.40;9.80;;;19.60;99.90;;;;;;5113634;28;20290;-72
2022/08/06 02:30:10;;;;;;;15.50;9.57;;;19.60;99.90;;;;;;5113108;28;20207;-74
2022/08/06 02:32:38;;;;;;;13.20;9.47;;;19.60;99.90;;;;;;5111189;28;20574;-73
2022/08/06 02:35:06;;;;;;;11.30;8.90;;;19.60;99.90;;;;;;5112722;28;20631;-74
2022/08/06 02:37:39;;;;;;;14.57;9.80;;;19.60;99.90;;;;;;5113355;28;20293;-73
2022/08/06 02:40:10;;;;;;;14.97;10.20;;;19.60;99.90;;;;;;5112897;28;20274;-73
2022/08/06 02:42:43;;;;;;;14.80;10.13;;;19.50;99.90;;;;;;5110002;28;20720;-72
2022/08/06 02:45:18;;;;;;;10.63;9.17;;;19.50;99.90;;;;;;5113231;28;20597;-73
2022/08/06 02:47:52;;;;;;;14.60;9.57;;;19.50;99.90;;;;;;5107626;28;20207;-73
2022/08/06 02:50:25;;;;;;;10.40;9.27;;;19.50;99.90;;;;;;5092595;28;20202;-74
2022/08/06 02:52:58;;;;;;;13.57;10.03;;;19.50;99.90;;;;;;5092242;28;20231;-73
2022/08/06 02:55:30;;;;;;;12.93;9.63;;;19.50;99.90;;;;;;5092647;28;20674;-75
2022/08/06 02:58:00;;;;;;;15.57;9.97;;;19.60;99.90;;;;;;5111179;28;20571;-74
2022/08/06 03:00:30;;;;;;;12.33;9.80;;;19.60;99.90;;;;;;5112305;28;20241;-73
2022/08/06 03:03:01;;;;;;;11.90;9.47;;;19.60;99.90;;;;;;5112463;28;20210;-72
2022/08/06 03:05:29;;;;;;;13.17;9.13;;;19.60;99.90;;;;;;5110870;28;20226;-73
2022/08/06 03:07:58;;;;;;;13.67;9.27;;;19.70;99.90;;;;;;5112455;28;20207;-73
2022/08/06 03:10:27;;;;;;;13.37;9.57;;;19.70;99.90;;;;;;5111956;28;20204;-73
2022/08/06 03:12:55;;;;;;;11.90;9.60;;;19.70;99.90;;;;;;5112474;28;20306;-74
2022/08/06 03:15:25;;;;;;;12.13;9.63;;;19.80;99.90;;;;;;5111465;28;20630;-73
2022/08/06 03:17:56;;;;;;;12.67;10.20;;;19.80;99.90;;;;;;5112377;28;20238;-73
2022/08/06 03:20:24;;;;;;;12.10;9.57;;;19.90;99.90;;;;;;5112477;28;20188;-73
2022/08/06 03:22:55;;;;;;;13.80;10.20;;;19.90;99.90;;;;;;5112302;28;20304;-73
2022/08/06 03:25:23;;;;;;;11.80;9.53;;;19.80;99.90;;;;;;5107950;28;20725;-73
2022/08/06 03:27:51;;;;;;;12.30;9.70;;;19.80;99.90;;;;;;5112544;28;20625;-75
2022/08/06 03:30:20;;;;;;;12.97;9.97;;;19.90;99.90;;;;;;5112420;28;20296;-73
2022/08/06 03:32:49;;;;;;;12.97;9.70;;;19.90;99.90;;;;;;5112183;28;20238;-73
2022/08/06 03:35:16;;;;;;;10.43;9.03;;;19.90;99.90;;;;;;5110781;28;20660;-73
2022/08/06 03:37:46;;;;;;;11.57;9.53;;;19.90;99.90;;;;;;5112044;28;20197;-73
2022/08/06 03:40:14;;;;;;;13.03;9.37;;;19.90;99.90;;;;;;5112625;28;20292;-72
2022/08/06 03:42:41;;;;;;;11.27;9.17;;;20.00;99.90;;;;;;5109639;28;20283;-73
2022/08/06 03:45:09;;;;;;;10.53;9.00;;;20.00;99.90;;;;;;5112164;28;20290;-74
2022/08/06 03:47:41;;;;;;;12.03;8.90;;;19.90;99.90;;;;;;5112425;28;20280;-73
2022/08/06 03:50:12;;;;;;;12.80;9.67;;;20.00;99.90;;;;;;5111992;28;20280;-74
2022/08/06 03:52:42;;;;;;;12.27;9.07;;;20.10;99.90;;;;;;5098987;28;20252;-73
2022/08/06 03:55:15;;;;;;;11.47;9.30;;;20.10;99.90;;;;;;5091486;28;20318;-74
2022/08/06 03:57:45;;;;;;;12.00;8.97;;;20.20;99.90;;;;;;5091715;28;20188;-73
2022/08/06 04:00:15;;;;;;;11.73;9.27;;;20.20;99.90;;;;;;5094817;28;20390;-73
2022/08/06 04:02:46;;;;;;;11.40;8.93;;;20.30;99.90;;;;;;5112029;28;20581;-73
2022/08/06 04:05:17;;;;;;;11.13;8.60;;;20.30;99.90;;;;;;5112405;28;20653;-74
2022/08/06 04:07:44;;;;;;;10.17;8.63;;;20.30;99.90;;;;;;5111904;28;20194;-74
2022/08/06 04:10:13;;;;;;;10.60;8.97;;;20.30;99.90;;;;;;5110224;28;20211;-74
2022/08/06 04:12:42;;;;;;;13.77;8.90;;;20.40;99.90;;;;;;5111536;28;20299;-73
2022/08/06 04:15:11;;;;;;;12.93;9.30;;;20.40;99.90;;;;;;5111778;28;20259;-75
2022/08/06 04:17:41;;;;;;;11.40;9.00;;;20.40;99.90;;;;;;5111789;28;20652;-75
2022/08/06 04:20:09;;;;;;;11.30;8.80;;;20.40;99.90;;;;;;5111087;28;20195;-75
2022/08/06 04:22:37;;;;;;;10.87;8.97;;;20.50;99.90;;;;;;5112312;28;20238;-75
2022/08/06 04:25:04;;;;;;;11.27;8.80;;;20.60;99.90;;;;;;5116135;28;20203;-73
2022/08/06 04:27:35;;;;;;;11.80;8.70;;;20.60;99.90;;;;;;5115284;28;20207;-73
2022/08/06 04:30:02;;;;;;;10.33;8.83;;;20.60;99.90;;;;;;5114623;28;20726;-75
2022/08/06 04:32:29;;;;;;;14.03;10.20;;;20.70;99.90;;;;;;5115622;28;20767;-74
2022/08/06 04:34:57;;;;;;;11.40;8.73;;;20.80;99.90;;;;;;5115002;28;20718;-73
2022/08/06 04:37:25;;;;;;;12.83;9.40;;;20.80;99.90;;;;;;5098839;28;20734;-73
2022/08/06 04:39:52;;;;;;;11.37;8.97;;;20.90;99.90;;;;;;5094872;28;20207;-73
2022/08/06 04:42:19;;;;;;;12.23;8.73;;;21.00;99.90;;;;;;5094863;28;20243;-73
2022/08/06 04:44:48;;;;;;;9.63;8.63;;;21.00;99.90;;;;;;5094339;28;20200;-73
2022/08/06 04:47:16;;;;;;;10.77;8.80;;;21.10;99.90;;;;;;5099039;28;20307;-74
2022/08/06 04:49:43;;;;;;;10.67;8.97;;;21.20;99.90;;;;;;5094317;28;20204;-73
2022/08/06 04:52:21;;;;;;;9.70;8.67;;;21.20;99.90;;;;;;5094767;28;20301;-72
2022/08/06 04:54:48;;;;;;;14.10;8.90;;;21.30;99.90;;;;;;5094588;28;20320;-73
2022/08/06 04:57:15;;;;;;;12.13;9.10;;;21.40;99.90;;;;;;5120877;27;20215;-68
2022/08/06 04:59:42;;;;;;;14.93;8.90;;;21.40;99.90;;;;;;5120192;27;20645;-67
2022/08/06 05:02:10;;;;;;;10.80;9.43;;;21.50;99.90;;;;;;5123223;27;20230;-69
2022/08/06 05:04:38;;;;;;;10.43;8.60;;;21.50;99.90;;;;;;5124214;27;20199;-67
2022/08/06 05:07:14;;;;;;;9.33;8.20;;;21.60;99.90;;;;;;5117335;27;20200;-69
2022/08/06 05:09:41;;;;;;;10.53;8.83;;;21.70;99.90;;;;;;5119756;27;20195;-69
2022/08/06 05:12:16;;;;;;;12.70;8.97;;;21.70;99.90;;;;;;5123298;27;20237;-69
2022/08/06 05:14:49;;;;;;;10.70;8.80;;;21.80;99.90;;;;;;5120430;27;20228;-69
2022/08/06 05:17:21;;;;;;;12.57;8.80;;;21.90;99.90;;;;;;5122214;27;20286;-68
2022/08/06 05:19:54;;;;;;;9.47;8.03;;;21.90;99.90;;;;;;5119616;27;20189;-68
2022/08/06 05:22:23;;;;;;;9.03;8.10;;;22.00;99.90;;;;;;5126994;27;20641;-68
2022/08/06 05:24:50;;;;;;;8.77;7.57;;;22.10;99.90;;;;;;5134344;27;20243;-69
2022/08/06 05:27:18;;;;;;;10.40;8.80;;;22.10;99.90;;;;;;5117746;27;20437;-69
2022/08/06 05:29:45;;;;;;;11.07;8.97;;;22.20;99.90;;;;;;5092589;28;20266;-69
2022/08/06 05:32:13;;;;;;;9.40;8.40;;;22.30;99.90;;;;;;5106103;27;20287;-70
2022/08/06 05:34:41;;;;;;;11.33;8.77;;;22.40;99.90;;;;;;5133319;27;20271;-70
2022/08/06 05:37:08;;;;;;;11.33;8.70;;;22.40;99.90;;;;;;5125711;27;20272;-69
2022/08/06 05:39:34;;;;;;;11.23;8.37;;;22.50;99.90;;;;;;5113873;28;20291;-68
2022/08/06 05:42:01;;;;;;;10.37;8.00;;;22.60;99.90;;;;;;5122572;27;20287;-71
2022/08/06 05:44:28;;;;;;;8.40;7.43;;;22.60;99.90;;;;;;5134408;27;20288;-71
2022/08/06 05:46:59;;;;;;;9.07;7.03;;;22.70;99.90;;;;;;5127947;27;20614;-71
2022/08/06 05:49:29;;;;;;;9.93;7.63;;;22.80;99.90;;;;;;5113566;28;20184;-69
2022/08/06 05:52:03;;;;;;;9.20;7.83;;;22.90;99.90;;;;;;5113367;28;20215;-68
2022/08/06 05:54:35;;;;;;;8.80;7.70;;;23.00;99.90;;;;;;5113234;28;20282;-70
2022/08/06 05:57:07;;;;;;;7.73;6.93;;;23.10;99.90;;;;;;5119864;27;20200;-70
2022/08/06 05:59:38;;;;;;;8.57;7.00;;;23.20;99.90;;;;;;5119686;27;20207;-70
2022/08/06 06:02:07;;;;;;;11.70;7.43;;;23.20;99.90;;;;;;5118639;27;20203;-68
2022/08/06 06:04:35;;;;;;;8.03;7.23;;;23.20;99.90;;;;;;5121162;27;20209;-68
2022/08/06 06:07:03;;;;;;;10.17;6.97;;;23.30;99.90;;;;;;5121990;27;20286;-70
2022/08/06 06:09:30;;;;;;;8.20;6.60;;;23.40;99.90;;;;;;5121626;27;20610;-71
2022/08/06 06:11:58;;;;;;;9.00;6.50;;;23.50;99.90;;;;;;5118994;27;20206;-69
2022/08/06 06:14:45;;;;;;;8.90;6.70;;;23.50;99.90;;;;;;5122257;27;20695;-68
2022/08/06 06:17:33;;;;;;;7.80;6.83;;;23.60;99.90;;;;;;5118005;27;20210;-69
2022/08/06 06:20:13;;;;;;;9.10;6.80;;;23.60;99.90;;;;;;5122325;27;20760;-69
2022/08/06 06:22:52;;;;;;;9.63;6.40;;;23.70;99.90;;;;;;5121308;27;20209;-68
2022/08/06 06:25:25;;;;;;;10.67;6.20;;;23.80;99.90;;;;;;5099202;27;20324;-69
2022/08/06 06:27:58;;;;;;;10.97;7.10;;;23.90;99.90;;;;;;5092386;28;20193;-69
2022/08/06 06:30:31;;;;;;;10.10;6.27;;;23.90;99.90;;;;;;5092349;28;20274;-71
2022/08/06 06:33:13;;;;;;;8.63;6.83;;;24.00;99.90;;;;;;5104710;28;20542;-69
2022/08/06 06:35:48;;;;;;;8.47;6.47;;;24.10;99.90;;;;;;5125345;27;20233;-69
2022/08/06 06:38:26;;;;;;;7.87;6.63;;;24.20;99.90;;;;;;5115610;27;20188;-68
2022/08/06 06:40:59;;;;;;;10.63;6.80;;;24.20;99.90;;;;;;5112970;28;20241;-69
2022/08/06 06:43:34;;;;;;;10.10;7.43;;;24.30;99.90;;;;;;5109664;28;20747;-68
2022/08/06 06:46:06;;;;;;;9.83;7.77;;;24.40;99.90;;;;;;5112075;28;20266;-69
2022/08/06 06:48:36;;;;;;;9.13;7.47;;;24.50;99.90;;;;;;5112145;28;20199;-69
2022/08/06 06:51:08;;;;;;;10.23;7.30;;;24.50;99.90;;;;;;5112440;28;20204;-68
2022/08/06 06:53:41;;;;;;;7.30;6.60;;;24.60;99.90;;;;;;5092442;28;20235;-67
2022/08/06 06:56:09;;;;;;;9.73;6.63;;;24.60;99.90;;;;;;5091243;28;20307;-69
2022/08/06 06:58:39;;;;;;;8.50;7.03;;;24.70;99.90;;;;;;5093661;28;20203;-68
2022/08/06 07:01:09;;;;;;;12.65;7.72;;;24.70;99.90;;;;;;5092316;28;20198;-69
2022/08/06 07:03:40;;;;;;;10.30;7.35;;;24.70;99.90;;;;;;5102723;28;20217;-69
2022/08/06 07:06:09;;;;;;;10.00;7.07;;;24.80;99.90;;;;;;5110903;28;20537;-69
2022/08/06 07:08:44;;;;;;;10.18;7.72;;;24.80;99.90;;;;;;5112068;28;20207;-69
2022/08/06 07:11:14;;;;;;;9.07;7.22;;;24.90;99.90;;;;;;5111882;28;20198;-68
2022/08/06 07:13:43;;;;;;;8.43;7.53;;;24.90;99.90;;;;;;5112678;28;20206;-69
2022/08/06 07:16:13;;;;;;;9.43;7.45;;;25.00;99.90;;;;;;5110893;28;20303;-69
2022/08/06 07:18:41;;;;;;;10.55;7.78;;;25.00;99.90;;;;;;5100719;28;20668;-68
2022/08/06 07:21:08;;;;;;;11.98;8.10;;;25.10;99.90;;;;;;5091336;28;20239;-68
2022/08/06 07:23:36;;;;;;;10.82;7.60;;;25.10;99.90;;;;;;5091614;28;20296;-69
2022/08/06 07:26:06;;;;;;;11.30;7.88;;;25.20;99.90;;;;;;5112191;28;20206;-68
2022/08/06 07:28:35;;;;;;;12.90;8.38;;;25.20;99.90;;;;;;5112263;28;20660;-70
2022/08/06 07:31:05;;;;;;;8.75;7.45;;;25.20;99.90;;;;;;5103487;28;20237;-70
2022/08/06 07:33:34;;;;;;;10.00;7.53;;;25.30;99.90;;;;;;5105017;28;20207;-70
2022/08/06 07:36:01;;;;;;;12.68;7.80;;;25.40;99.90;;;;;;5111844;28;20260;-69
2022/08/06 07:38:29;;;;;;;8.77;7.72;;;25.40;99.90;;;;;;5111506;28;20216;-71
2022/08/06 07:40:59;;;;;;;12.63;7.80;;;25.50;99.90;;;;;;5105362;28;20207;-68
2022/08/06 07:43:30;;;;;;;10.45;8.20;;;25.50;99.90;;;;;;5091098;28;20227;-69
2022/08/06 07:46:00;;;;;;;8.68;7.75;;;25.60;99.90;;;;;;5091794;28;20190;-70
2022/08/06 07:48:33;;;;;;;16.05;8.18;;;25.50;99.90;;;;;;5091156;28;20301;-69
2022/08/06 07:51:01;;;;;;;11.60;7.80;;;25.60;99.90;;;;;;5090737;28;20241;-69
2022/08/06 07:53:30;;;;;;;12.13;7.80;;;25.70;99.90;;;;;;5091594;28;20570;-71
2022/08/06 07:55:59;;;;;;;10.73;7.53;;;25.70;99.90;;;;;;5091603;28;20742;-70
2022/08/06 07:58:28;;;;;;;8.80;7.38;;;25.70;99.90;;;;;;5095063;28;20256;-69
2022/08/06 08:00:55;;;;;;;10.32;7.40;;;25.80;99.90;;;;;;5095793;28;20268;-68
2022/08/06 08:06:18;;;;;;;10.77;7.60;;;25.90;99.90;;;;;;5115617;28;20703;-69
2022/08/06 08:08:46;;;;;;;9.32;7.00;;;25.90;99.90;;;;;;5112040;28;20621;-70
2022/08/06 08:11:15;;;;;;;9.30;7.18;;;26.00;99.90;;;;;;5115418;28;20375;-70
2022/08/06 08:13:43;;;;;;;8.55;6.93;;;26.10;99.90;;;;;;5103482;28;20648;-69
2022/08/06 08:16:14;;;;;;;8.75;7.45;;;26.10;99.90;;;;;;5095296;28;20632;-69
2022/08/06 08:18:42;;;;;;;9.23;7.20;;;26.10;99.90;;;;;;5099456;28;20210;-68
2022/08/06 08:21:10;;;;;;;9.00;6.88;;;26.10;99.90;;;;;;5115315;28;20295;-69
2022/08/06 08:23:40;;;;;;;8.57;5.88;;;26.10;99.90;;;;;;5115683;28;20239;-70
2022/08/06 08:26:07;;;;;;;10.90;7.20;;;26.10;99.90;;;;;;5115134;28;20210;-68
2022/08/06 08:28:34;;;;;;;8.77;7.28;;;26.20;99.90;;;;;;5115092;28;20301;-69
2022/08/06 08:31:03;;;;;;;9.68;7.38;;;26.30;99.90;;;;;;5114898;28;20197;-69
2022/08/06 08:33:30;;;;;;;10.05;7.30;;;26.20;99.90;;;;;;5115085;28;20243;-69
2022/08/06 08:35:57;;;;;;;7.60;6.80;;;26.30;99.90;;;;;;5106304;28;20224;-70
2022/08/06 08:38:25;;;;;;;10.25;6.93;;;26.40;99.90;;;;;;5095062;28;20252;-70
2022/08/06 08:40:54;;;;;;;9.07;7.35;;;26.40;99.90;;;;;;5112642;28;20201;-70
2022/08/06 08:43:25;;;;;;;9.07;7.93;;;26.50;99.90;;;;;;5115119;28;20760;-72
2022/08/06 08:45:54;;;;;;;11.52;8.55;;;26.50;99.90;;;;;;5115137;28;20195;-71
2022/08/06 08:48:28;;;;;;;9.27;8.02;;;26.50;99.90;;;;;;5114943;28;20293;-70
2022/08/06 08:50:57;;;;;;;12.32;9.00;;;26.50;99.90;;;;;;5114934;28;20190;-70
2022/08/06 08:53:32;;;;;;;12.55;10.30;;;26.50;99.90;;;;;;5101618;28;20213;-69
2022/08/06 08:55:59;;;;;;;11.20;9.57;;;26.50;99.90;;;;;;5112053;28;20746;-69
2022/08/06 08:58:27;;;;;;;9.93;7.82;;;26.60;99.90;;;;;;5111434;28;20294;-70
2022/08/06 09:00:54;;;;;;;13.38;8.77;;;26.60;99.90;;;;;;5103333;28;20682;-69
2022/08/06 09:03:23;;;;;;;12.18;8.65;;;26.60;99.90;;;;;;5114470;28;20545;-72
2022/08/06 09:05:50;;;;;;;10.15;8.23;;;26.60;99.90;;;;;;5114863;28;20200;-71
2022/08/06 09:08:18;;;;;;;11.43;8.50;;;26.70;99.90;;;;;;5113863;28;20729;-69
2022/08/06 09:10:45;;;;;;;9.07;8.18;;;26.70;99.90;;;;;;5119404;27;20212;-69
2022/08/06 09:13:13;;;;;;;10.63;8.73;;;26.80;99.90;;;;;;5132424;27;20605;-69
2022/08/06 09:15:40;;;;;;;10.98;8.38;;;26.80;99.90;;;;;;5134950;27;20207;-69
2022/08/06 09:18:07;;;;;;;12.23;8.68;;;26.90;99.90;;;;;;5124608;27;20713;-70
2022/08/06 09:20:37;;;;;;;11.38;9.23;;;26.90;99.90;;;;;;5106189;28;20256;-69
2022/08/06 09:23:05;;;;;;;10.10;8.27;;;26.90;99.90;;;;;;5102710;28;20564;-72
2022/08/06 09:25:41;;;;;;;15.27;8.32;;;27.00;99.90;;;;;;5093835;28;20212;-72
2022/08/06 09:28:11;;;;;;;9.88;8.20;;;27.00;99.90;;;;;;5094259;28;20649;-72
2022/08/06 09:30:38;;;;;;;9.07;8.00;;;27.00;99.90;;;;;;5113074;28;20196;-71
2022/08/06 09:33:12;;;;;;;9.05;8.07;;;27.10;99.90;;;;;;5113978;28;20210;-70
2022/08/06 09:35:40;;;;;;;15.20;8.95;;;27.10;99.90;;;;;;5119323;27;20236;-69
2022/08/06 09:38:10;;;;;;;12.73;8.60;;;27.20;99.90;;;;;;5122872;27;20202;-72
2022/08/06 09:40:37;;;;;;;12.75;8.65;;;27.30;99.90;;;;;;5119563;27;20284;-69
2022/08/06 09:43:04;;;;;;;11.55;7.45;;;27.30;99.90;;;;;;5122354;27;20200;-72
2022/08/06 09:45:31;;;;;;;7.45;6.70;;;27.30;99.90;;;;;;5124274;27;20572;-68
2022/08/06 09:48:02;;;;;;;7.05;6.35;;;27.30;99.90;;;;;;5119227;27;20197;-69
2022/08/06 09:50:42;;;;;;;8.25;7.40;;;27.30;99.90;;;;;;5121484;27;20193;-67
2022/08/06 09:53:09;;;;;;;9.32;7.65;;;27.40;99.90;;;;;;5117633;27;20187;-70
2022/08/06 09:55:37;;;;;;;8.35;7.05;;;27.40;99.90;;;;;;5118757;27;20255;-70
2022/08/06 09:58:04;;;;;;;9.50;7.18;;;27.40;99.90;;;;;;5124205;27;20241;-69
2022/08/06 10:00:32;;;;;;;8.27;7.40;;;27.50;99.90;;;;;;5115287;27;20218;-69
2022/08/06 10:03:00;;;;;;;8.07;7.10;;;27.60;99.90;;;;;;5119200;27;20297;-68
2022/08/06 10:05:28;;;;;;;8.57;7.28;;;27.60;99.90;;;;;;5120187;27;20498;-69
2022/08/06 10:08:09;;;;;;;9.82;6.90;;;27.70;99.90;;;;;;5112885;27;20233;-69
2022/08/06 10:10:45;;;;;;;12.05;7.53;;;27.70;99.90;;;;;;5123785;27;20208;-71
2022/08/06 10:13:15;;;;;;;9.80;7.30;;;27.70;99.90;;;;;;5126724;27;20274;-68
2022/08/06 10:15:44;;;;;;;8.77;6.85;;;27.80;99.90;;;;;;5112598;27;20255;-68
2022/08/06 10:18:11;;;;;;;7.40;6.40;;;27.80;99.90;;;;;;5112296;28;20208;-69
2022/08/06 10:20:58;;;;;;;11.18;7.55;;;27.80;99.90;;;;;;5112636;28;20835;-71
2022/08/06 10:23:29;;;;;;;14.40;7.65;;;27.80;99.90;;;;;;5112694;27;20205;-69
2022/08/06 10:25:56;;;;;;;10.40;7.50;;;27.80;99.90;;;;;;5121458;27;20256;-69
2022/08/06 10:28:26;;;;;;;10.55;7.20;;;27.90;99.90;;;;;;5120608;27;20717;-68
2022/08/06 10:30:54;;;;;;;7.72;6.93;;;28.00;99.90;;;;;;5112799;28;20194;-71
2022/08/06 10:33:24;;;;;;;7.97;7.13;;;28.00;99.90;;;;;;5111685;27;20202;-69
2022/08/06 10:35:55;;;;;;;8.95;7.35;;;28.00;99.90;;;;;;5121939;27;20222;-70
2022/08/06 10:38:26;;;;;;;9.55;7.25;;;28.10;99.90;;;;;;5120089;27;20667;-70
2022/08/06 10:40:57;;;;;;;16.00;11.20;;;28.10;99.90;;;;;;5121944;27;20190;-69
2022/08/06 10:43:25;;;;;;;8.77;7.50;;;28.10;99.90;;;;;;5120185;27;20236;-70
2022/08/06 10:45:53;;;;;;;8.25;7.15;;;28.20;99.90;;;;;;5121867;27;20205;-69
2022/08/06 10:48:23;;;;;;;8.55;7.18;;;28.20;99.90;;;;;;5118430;27;20197;-69
2022/08/06 10:50:52;;;;;;;9.95;7.38;;;28.30;99.90;;;;;;5118681;27;20203;-69
2022/08/06 10:53:19;;;;;;;8.18;6.68;;;28.30;99.90;;;;;;5126846;27;20220;-68
2022/08/06 10:55:46;;;;;;;10.77;8.80;;;28.30;99.90;;;;;;5133122;27;20209;-68
2022/08/06 10:58:15;;;;;;;9.63;7.22;;;28.40;99.90;;;;;;5133056;27;20218;-69
2022/08/06 11:00:44;;;;;;;8.50;6.80;;;28.40;99.90;;;;;;5133164;27;20445;-68
2022/08/06 11:03:18;;;;;;;7.80;6.10;;;28.50;99.90;;;;;;5129640;27;20191;-70
2022/08/06 11:05:51;;;;;;;8.32;6.20;;;28.50;99.90;;;;;;5123392;27;20614;-68
2022/08/06 11:08:39;;;;;;;9.45;6.03;;;28.50;99.90;;;;;;5122769;27;20278;-72
2022/08/06 11:11:24;;;;;;;7.28;5.75;;;28.60;99.90;;;;;;5126516;27;20285;-69
2022/08/06 11:14:01;;;;;;;7.22;6.32;;;28.60;99.90;;;;;;5133314;27;20275;-70
2022/08/06 11:16:30;;;;;;;7.10;6.40;;;28.60;99.90;;;;;;5133258;27;20206;-69
2022/08/06 11:19:02;;;;;;;8.20;6.90;;;28.60;99.90;;;;;;5132756;27;20202;-70
2022/08/06 11:21:50;;;;;;;10.65;7.28;;;28.70;99.90;;;;;;5132925;27;20205;-70
2022/08/06 11:24:17;;;;;;;7.68;6.88;;;28.70;99.90;;;;;;5127855;27;20266;-69
2022/08/06 11:26:45;;;;;;;8.43;7.47;;;28.80;99.90;;;;;;5132979;27;20637;-72
2022/08/06 11:29:15;;;;;;;7.75;6.40;;;28.80;99.90;;;;;;5132942;27;20584;-69
2022/08/06 11:31:46;;;;;;;9.10;7.70;;;28.90;99.90;;;;;;5131929;27;20206;-70
2022/08/06 11:34:17;;;;;;;11.07;7.75;;;29.00;99.90;;;;;;5132672;27;20668;-71
2022/08/06 11:36:46;;;;;;;10.00;7.65;;;29.00;99.90;;;;;;5132705;27;20274;-68
2022/08/06 11:39:14;;;;;;;8.70;7.15;;;29.00;99.90;;;;;;5132857;28;20237;-69
2022/08/06 11:41:50;;;;;;;8.63;7.13;;;29.10;99.90;;;;;;5132475;27;20290;-68
2022/08/06 11:44:19;;;;;;;7.72;6.85;;;29.10;99.90;;;;;;5132549;28;20281;-70
2022/08/06 11:46:47;;;;;;;11.80;6.78;;;29.10;99.90;;;;;;5132145;28;20638;-72
2022/08/06 11:49:34;;;;;;;9.10;6.40;;;29.00;99.90;;;;;;5132781;28;20213;-71
2022/08/06 11:52:01;;;;;;;9.18;6.18;;;29.00;99.90;;;;;;5132433;28;20233;-69
2022/08/06 11:54:30;;;;;;;7.68;5.25;;;29.10;99.90;;;;;;5132335;28;20309;-70
2022/08/06 11:57:20;;;;;;;6.55;5.45;;;29.10;99.90;;;;;;5132331;28;20225;-69
2022/08/06 12:00:08;;;;;;;7.95;6.07;;;29.10;99.90;;;;;;5131959;28;20212;-69
2022/08/06 12:02:54;;;;;;;6.18;5.20;;;29.10;99.90;;;;;;5126316;27;20219;-69
2022/08/06 12:05:44;;;;;;;7.57;5.40;;;29.10;99.90;;;;;;5122127;28;20194;-69
2022/08/06 12:08:26;;;;;;;7.38;5.93;;;29.10;99.90;;;;;;5115596;28;20205;-68
2022/08/06 12:11:27;;;;;;;5.88;5.13;;;29.10;99.90;;;;;;5120294;28;20190;-69
2022/08/06 12:13:55;;;;;;;7.20;6.13;;;29.20;99.90;;;;;;5118469;28;20287;-69
2022/08/06 12:16:34;;;;;;;8.77;6.20;;;29.20;99.90;;;;;;5103158;28;20641;-71
2022/08/06 12:19:03;;;;;;;8.25;6.60;;;29.30;99.90;;;;;;5091453;28;20290;-70
2022/08/06 12:21:31;;;;;;;10.50;6.03;;;29.30;99.90;;;;;;5091039;28;20268;-70
2022/08/06 12:23:58;;;;;;;15.20;6.55;;;29.30;99.90;;;;;;5091959;28;20344;-69
2022/08/06 12:26:31;;;;;;;27.38;7.40;;;29.30;99.90;;;;;;5091596;28;20293;-70
2022/08/06 12:29:02;;;;;;;28.05;6.93;;;29.40;99.90;;;;;;5090796;28;20199;-68
2022/08/06 12:31:36;;;;;;;17.27;6.50;;;29.40;99.90;;;;;;5091095;28;20198;-69
2022/08/06 12:34:04;;;;;;;8.80;6.43;;;29.40;99.90;;;;;;5090698;28;20236;-69
2022/08/06 12:36:34;;;;;;;17.27;6.65;;;29.40;99.90;;;;;;5090835;28;20708;-70
2022/08/06 12:39:02;;;;;;;9.50;5.68;;;29.40;99.90;;;;;;5091447;28;20344;-69
2022/08/06 12:41:38;;;;;;;10.02;6.55;;;29.40;99.90;;;;;;5090814;28;20257;-70
2022/08/06 12:44:05;;;;;;;18.02;6.80;;;29.40;99.90;;;;;;5092064;28;20688;-71
2022/08/06 12:46:32;;;;;;;23.25;6.40;;;29.50;99.90;;;;;;5094443;28;20291;-71
2022/08/06 12:49:00;;;;;;;14.60;6.97;;;29.50;99.90;;;;;;5094983;28;20321;-69
2022/08/06 12:51:28;;;;;;;11.10;5.72;;;29.50;99.90;;;;;;5095084;28;20203;-68
2022/08/06 12:53:58;;;;;;;16.88;6.18;;;29.70;99.90;;;;;;5114245;28;20256;-69
2022/08/06 12:56:26;;;;;;;7.80;5.20;;;29.70;99.90;;;;;;5122858;27;20285;-67
2022/08/06 12:58:55;;;;;;;17.88;6.82;;;29.80;99.90;;;;;;5115519;27;20579;-68